This is the latest recevied weather packets stored in our database for station/object S50APT-10. If no packets are shown the sender has not sent any weather packets the latest 10 day(s).
| Time | Temp. | Humidity | Pressure | Rain* | Wind** | Luminosity | Snow |
|---|---|---|---|---|---|---|---|
| 1778005034 | 15° C | 57% | 1013.4 hPa | - | - | - | - |
| 1778004133 | 15.56° C | 57% | 1013.7 hPa | - | - | - | - |
| 1778003233 | 15.56° C | 54% | 1013.5 hPa | - | - | - | - |
| 1778002332 | 16.11° C | 51% | 1013.7 hPa | - | - | - | - |
| 1778001431 | 17.22° C | 49% | 1013.7 hPa | - | - | - | - |
| 1778000531 | 17.22° C | 48% | 1013.8 hPa | - | - | - | - |
| 1777999630 | 17.22° C | 47% | 1013.9 hPa | - | - | - | - |
| 1777998729 | 18.89° C | 42% | 1013.8 hPa | - | - | - | - |
| 1777997828 | 18.89° C | 42% | 1014 hPa | - | - | - | - |
| 1777996927 | 21.11° C | 38% | 1014 hPa | - | - | - | - |
| 1777996027 | 20.56° C | 38% | 1013.7 hPa | - | - | - | - |
| 1777995127 | 19.44° C | 44% | 1013.9 hPa | - | - | - | - |
| 1777994226 | 18.33° C | 45% | 1013.7 hPa | - | - | - | - |
| 1777993326 | 18.89° C | 44% | 1013.9 hPa | - | - | - | - |
| 1777992425 | 18.89° C | 45% | 1014.2 hPa | - | - | - | - |
| 1777991524 | 19.44° C | 43% | 1014 hPa | - | - | - | - |
| 1777990624 | 18.89° C | 44% | 1014.3 hPa | - | - | - | - |
| 1777989723 | 18.89° C | 44% | 1014.2 hPa | - | - | - | - |
| 1777988823 | 19.44° C | 43% | 1014.3 hPa | - | - | - | - |
| 1777987922 | 18.89° C | 44% | 1014.4 hPa | - | - | - | - |
| 1777987021 | 19.44° C | 44% | 1014.7 hPa | - | - | - | - |
| 1777986119 | 19.44° C | 43% | 1014.9 hPa | - | - | - | - |
| 1777985218 | 19.44° C | 43% | 1015 hPa | - | - | - | - |
| 1777984318 | 18.33° C | 44% | 1015 hPa | - | - | - | - |
| 1777983417 | 19.44° C | 42% | 1015.2 hPa | - | - | - | - |
* Rain since midnight (hover to see other rain measurements)
** Current wind speed in m/s (hover to see current wind gust speed)